createdAt,value
2023-02-15T00:05:14.149Z,14.52
2023-02-15T00:10:39.189Z,14.68
2023-02-15T00:16:03.991Z,13.55
2023-02-15T00:21:27.812Z,13.88
2023-02-15T00:26:52.903Z,13.23
2023-02-15T00:32:16.740Z,14.32
2023-02-15T00:37:40.459Z,15.15
2023-02-15T00:43:05.519Z,13.88
2023-02-15T00:48:29.325Z,13.43
2023-02-15T00:53:53.147Z,12.32
2023-02-15T00:59:18.178Z,12.68
2023-02-15T01:04:42.375Z,12.45
2023-02-15T01:10:07.474Z,12.65
2023-02-15T01:15:32.704Z,13.55
2023-02-15T01:20:57.092Z,12.40
2023-02-15T01:26:21.204Z,11.68
2023-02-15T01:31:46.391Z,14.07
2023-02-15T01:37:11.828Z,12.25
2023-02-15T01:42:36.247Z,11.85
2023-02-15T01:48:05.578Z,12.38
2023-02-15T01:53:34.330Z,12.57
2023-02-15T01:59:01.841Z,12.50
2023-02-15T02:04:33.516Z,11.98
2023-02-15T02:09:57.294Z,10.73
2023-02-15T02:15:25.927Z,11.65
2023-02-15T02:21:16.986Z,10.27
2023-02-15T02:27:20.017Z,11.70
2023-02-15T02:33:16.277Z,10.57
2023-02-15T02:38:55.588Z,9.95
2023-02-15T02:44:23.012Z,11.70
2023-02-15T02:49:47.372Z,9.70
2023-02-15T02:55:17.801Z,10.63
2023-02-15T03:00:46.967Z,10.63
2023-02-15T03:06:14.199Z,9.63
2023-02-15T03:11:39.406Z,9.35
2023-02-15T03:17:04.736Z,10.45
2023-02-15T03:22:34.373Z,8.93
2023-02-15T03:28:04.000Z,10.73
2023-02-15T03:33:29.963Z,9.25
2023-02-15T03:39:02.180Z,10.10
2023-02-15T03:49:57.669Z,9.38
2023-02-15T03:55:21.315Z,9.57
2023-02-15T04:01:11.250Z,8.93
2023-02-15T04:06:35.194Z,9.27
2023-02-15T04:11:58.994Z,10.30
2023-02-15T04:17:24.150Z,8.32
2023-02-15T04:23:05.102Z,8.68
2023-02-15T04:28:28.796Z,8.88
2023-02-15T04:33:53.906Z,7.22
2023-02-15T04:39:19.227Z,9.10
2023-02-15T04:44:43.023Z,9.95
2023-02-15T04:50:09.377Z,8.38
2023-02-15T04:55:33.057Z,9.32
2023-02-15T05:00:57.560Z,8.45
2023-02-15T05:06:22.953Z,8.18
2023-02-15T05:11:46.653Z,9.13
2023-02-15T05:17:10.374Z,8.23
2023-02-15T05:22:35.540Z,6.90
2023-02-15T05:28:16.813Z,9.25
2023-02-15T05:33:41.989Z,9.50
2023-02-15T05:39:09.389Z,9.85
2023-02-15T05:44:33.155Z,9.43
2023-02-15T05:49:56.832Z,9.82
2023-02-15T05:55:22.251Z,9.25
2023-02-15T06:00:46.026Z,9.07
2023-02-15T06:06:10.042Z,9.45
2023-02-15T06:11:35.111Z,7.90
2023-02-15T06:17:01.134Z,9.10
2023-02-15T06:22:24.949Z,11.00
2023-02-15T06:27:50.311Z,10.30
2023-02-15T06:33:14.402Z,11.57
2023-02-15T15:27:53.716Z,19.42
2023-02-15T15:33:45.953Z,19.38
2023-02-15T15:39:23.228Z,19.77
2023-02-15T15:45:19.282Z,19.52
2023-02-15T15:50:44.028Z,18.73
2023-02-15T15:56:11.373Z,21.98
2023-02-15T16:01:42.356Z,20.48
2023-02-15T16:07:24.647Z,22.53
2023-02-15T16:12:50.671Z,22.25
2023-02-15T16:18:18.995Z,23.13
2023-02-15T16:24:15.782Z,21.50
2023-02-15T16:29:39.627Z,23.23
2023-02-15T16:35:05.545Z,21.15
2023-02-15T16:40:53.550Z,25.85
2023-02-15T16:46:21.825Z,23.58
2023-02-15T16:51:55.751Z,23.95
2023-02-15T16:57:21.989Z,22.85
2023-02-15T17:02:56.959Z,24.20
2023-02-15T17:08:27.645Z,24.55
2023-02-15T17:14:16.509Z,25.35
2023-02-15T17:19:49.972Z,27.58
2023-02-15T17:25:22.089Z,28.58
2023-02-15T17:36:14.711Z,30.67
2023-02-15T17:41:39.838Z,29.55
2023-02-15T17:47:03.573Z,35.58
2023-02-15T17:52:31.595Z,31.80
2023-02-15T17:57:56.724Z,30.75
2023-02-15T18:03:38.066Z,26.02
2023-02-15T18:09:19.047Z,26.07
2023-02-15T18:14:44.147Z,25.98
2023-02-15T18:20:18.033Z,27.10
2023-02-15T18:25:43.113Z,24.05
2023-02-15T18:31:08.363Z,22.45
2023-02-15T18:36:34.428Z,22.80
2023-02-15T18:41:58.939Z,23.60
2023-02-15T18:47:24.552Z,24.73
2023-02-15T18:52:50.989Z,24.38
2023-02-15T18:58:18.621Z,23.05
2023-02-15T19:03:47.251Z,23.77
2023-02-15T19:09:15.534Z,23.10
2023-02-15T19:14:39.277Z,22.92
2023-02-15T19:20:04.445Z,21.20
2023-02-15T19:25:31.374Z,23.65
2023-02-15T19:30:55.112Z,22.77
2023-02-15T19:36:22.858Z,24.52
2023-02-15T19:41:46.757Z,22.67
2023-02-15T19:47:13.667Z,22.58
2023-02-15T19:52:38.816Z,23.05
2023-02-15T19:58:03.689Z,22.92
2023-02-15T20:03:27.506Z,21.42
2023-02-15T20:08:52.686Z,22.38
2023-02-15T20:14:16.535Z,21.45
2023-02-15T20:19:41.609Z,22.00
2023-02-15T20:25:07.388Z,22.50
2023-02-15T20:30:33.218Z,22.48
2023-02-15T20:35:57.219Z,22.92
2023-02-15T20:41:39.898Z,21.75
2023-02-15T20:47:03.755Z,23.60
2023-02-15T20:52:27.742Z,23.05
2023-02-15T20:57:52.909Z,22.77
2023-02-15T21:03:24.525Z,24.05
2023-02-15T21:08:48.394Z,24.13
2023-02-15T21:14:19.742Z,22.85
2023-02-15T21:19:43.965Z,22.97
2023-02-15T21:25:08.091Z,22.42
2023-02-15T21:30:33.320Z,23.38
2023-02-15T21:35:59.029Z,22.90
2023-02-15T21:41:42.203Z,20.95
2023-02-15T21:47:25.271Z,22.45
2023-02-15T21:52:49.167Z,23.48
2023-02-15T21:58:20.597Z,25.58
2023-02-15T22:03:46.544Z,24.90
2023-02-15T22:09:16.316Z,23.88
2023-02-15T22:14:42.136Z,24.25
2023-02-15T22:20:15.412Z,23.55
2023-02-15T22:25:39.308Z,23.77
2023-02-15T22:31:04.323Z,21.98
2023-02-15T22:36:31.548Z,23.17
2023-02-15T22:41:56.075Z,22.75
2023-02-15T22:47:22.432Z,22.35
2023-02-15T22:52:47.575Z,22.40
2023-02-15T22:58:18.155Z,23.98
2023-02-15T23:03:41.927Z,22.17
2023-02-15T23:09:07.696Z,23.98
2023-02-15T23:14:35.373Z,21.88
2023-02-15T23:19:59.107Z,21.42
2023-02-15T23:25:28.074Z,23.63
2023-02-15T23:30:52.180Z,22.33
2023-02-15T23:36:28.513Z,21.23
2023-02-15T23:41:53.660Z,21.25
2023-02-15T23:47:43.199Z,20.75
2023-02-15T23:53:06.993Z,20.33
2023-02-15T23:58:38.809Z,22.60
